KSSI/SSI METAR and TAF weather

Enter ICAO airport designator
Station Type Date Time Source
KSSI METAR 2019/02/20 17:53 UTC NOAA

KSSI 201753Z AUTO 08005KT 9SM BKN005 OVC047 19/17 A3011 RMK AO2 SLP197 T01940167 10200 20150 58017


Station Type Date Time Source
KSSI Decoded METAR 2019/02/20 17:53 UTC NOAA

BRUNSWICK MC KINNON AIRPORT , GA, United States (KSSI) 31-09N 081-23W 6M
Feb 20, 2019 - 12:53 PM EST / 2019.02.20 1753 UTC
Wind: from the E (080 degrees) at 6 MPH (5 KT):0
Visibility: 9 mile(s):0
Sky conditions: overcast
Temperature: 66.9 F (19.4 C)
Dew Point: 62.1 F (16.7 C)
Relative Humidity: 84%
Pressure (altimeter): 30.11 in. Hg (1019 hPa)
Pressure tendency: 0.05 inches (1.7 hPa) lower than three hours ago
ob: KSSI 201753Z AUTO 08005KT 9SM BKN005 OVC047 19/17 A3011 RMK AO2 SLP197 T01940167 10200 20150 58017
cycle: 18

Station Type Date Time Source
KSSI TAF 2019/02/20 18:27 UTC NOAA

TAF KSSI 201724Z 2018/2118 09006KT 5SM BR VCSH BKN008 BKN015 OVC030
FM210100 14006KT 3SM BR OVC005
FM210800 18004KT 1SM BR OVC002
FM211500 19006KT 6SM BR BKN015 BKN035


Example: see airport list